Time;durP1;ratioP1;P1;durP2;ratioP2;P2;SDS_P1;SDS_P2;PMS_P1;PMS_P2;Temp;Humidity;BMP_temperature;BMP_pressure;BME280_temperature;BME280_humidity;BME280_pressure;Samples;Min_cycle;Max_cycle;Signal;HPM_P1;HPM_P2
2023/03/06 00:00:09;;;;;;;25.88;12.25;;;3.20;1.00;;;;;;7360177;19;20028;-72
2023/03/06 00:02:41;;;;;;;24.42;12.45;;;3.20;1.00;;;;;;7363396;19;20082;-72
2023/03/06 00:05:11;;;;;;;25.40;12.70;;;3.20;1.00;;;;;;7362704;19;20616;-71
2023/03/06 00:07:42;;;;;;;24.80;12.52;;;3.20;1.00;;;;;;7362866;19;20082;-70
2023/03/06 00:10:15;;;;;;;23.73;12.27;;;3.20;1.00;;;;;;7360335;19;20010;-72
2023/03/06 00:12:45;;;;;;;20.20;12.57;;;3.20;1.00;;;;;;7385340;19;20426;-72
2023/03/06 00:15:15;;;;;;;24.60;12.38;;;3.20;1.00;;;;;;7362196;19;20039;-71
2023/03/06 00:17:48;;;;;;;25.88;12.95;;;3.20;1.00;;;;;;7363860;19;20106;-71
2023/03/06 00:20:19;;;;;;;21.52;11.88;;;3.20;1.00;;;;;;7390954;19;20010;-71
2023/03/06 00:22:49;;;;;;;19.98;11.30;;;3.20;1.00;;;;;;7387127;19;20025;-71
2023/03/06 00:25:22;;;;;;;29.75;12.98;;;3.20;1.00;;;;;;7389063;19;20085;-72
2023/03/06 00:27:52;;;;;;;23.20;12.10;;;3.10;1.00;;;;;;7389596;19;20474;-70
2023/03/06 00:30:24;;;;;;;20.80;10.68;;;3.10;1.00;;;;;;7389274;19;20016;-71
2023/03/06 00:32:56;;;;;;;22.08;12.60;;;3.10;1.00;;;;;;7391507;19;20104;-71
2023/03/06 00:35:26;;;;;;;19.98;11.18;;;3.10;1.00;;;;;;7390851;19;20021;-71
2023/03/06 00:37:58;;;;;;;21.55;11.48;;;3.10;1.00;;;;;;7389908;19;20011;-72
2023/03/06 00:40:28;;;;;;;23.40;11.68;;;3.20;1.00;;;;;;7387637;19;20014;-72
2023/03/06 00:42:58;;;;;;;23.33;11.65;;;3.20;1.00;;;;;;7421027;19;20018;-71
2023/03/06 00:45:28;;;;;;;20.75;11.68;;;3.20;1.00;;;;;;7420722;19;20021;-72
2023/03/06 00:48:00;;;;;;;21.45;11.70;;;3.20;1.00;;;;;;7414860;19;20013;-69
2023/03/06 00:50:30;;;;;;;19.98;11.23;;;3.20;1.00;;;;;;7393365;19;20027;-71
2023/03/06 00:53:00;;;;;;;24.17;11.93;;;3.20;1.00;;;;;;7388877;19;20343;-71
2023/03/06 00:55:32;;;;;;;19.73;10.82;;;3.20;1.00;;;;;;7387910;19;20537;-72
2023/03/06 00:58:02;;;;;;;21.52;10.55;;;3.30;1.00;;;;;;7388107;19;20027;-72
2023/03/06 01:00:31;;;;;;;18.77;10.90;;;3.20;1.00;;;;;;7384169;19;20031;-72
2023/03/06 01:03:04;;;;;;;20.38;10.98;;;3.20;1.00;;;;;;7388159;19;20336;-71
2023/03/06 01:05:36;;;;;;;18.52;10.10;;;3.20;1.00;;;;;;7387683;19;20018;-71
2023/03/06 01:08:07;;;;;;;20.50;11.10;;;3.20;1.00;;;;;;7387748;19;20015;-71
2023/03/06 01:10:40;;;;;;;22.88;12.25;;;3.20;1.00;;;;;;7384496;19;20021;-71
2023/03/06 01:13:10;;;;;;;18.35;10.30;;;3.20;1.00;;;;;;7387946;19;20618;-71
2023/03/06 01:15:40;;;;;;;19.02;10.30;;;3.20;1.00;;;;;;7387314;19;20035;-71
2023/03/06 01:18:12;;;;;;;19.48;10.45;;;3.10;1.00;;;;;;7330990;19;20042;-72
2023/03/06 01:20:42;;;;;;;21.73;10.55;;;3.10;1.00;;;;;;7381944;19;20014;-72
2023/03/06 01:23:12;;;;;;;17.38;10.48;;;3.10;1.00;;;;;;7360188;19;20021;-72
2023/03/06 01:25:42;;;;;;;22.17;11.02;;;3.10;1.00;;;;;;7359121;19;20078;-72
2023/03/06 01:28:11;;;;;;;19.38;10.68;;;3.10;1.00;;;;;;7359356;19;20019;-71
2023/03/06 01:30:41;;;;;;;18.65;10.73;;;3.10;1.00;;;;;;7381450;19;20015;-72
2023/03/06 01:33:14;;;;;;;22.58;10.85;;;3.10;1.00;;;;;;7361916;19;20035;-72
2023/03/06 01:35:43;;;;;;;21.02;11.50;;;3.20;1.00;;;;;;7365635;19;20013;-72
2023/03/06 01:38:14;;;;;;;22.67;10.73;;;3.20;1.00;;;;;;7365927;19;20015;-72
2023/03/06 01:40:44;;;;;;;21.42;10.75;;;3.10;1.00;;;;;;7363138;19;20477;-72
2023/03/06 01:43:27;;;;;;;15.80;9.90;;;3.10;1.00;;;;;;7366168;19;20023;-72
2023/03/06 01:46:24;;;;;;;18.70;10.18;;;3.00;1.00;;;;;;7365338;19;20015;-72
2023/03/06 01:48:58;;;;;;;19.17;11.23;;;3.00;1.00;;;;;;7379409;19;20018;-71
2023/03/06 01:51:31;;;;;;;20.88;11.55;;;3.00;1.00;;;;;;7386288;19;20015;-72
2023/03/06 01:54:04;;;;;;;21.83;11.55;;;3.10;1.00;;;;;;7365469;19;20010;-72
2023/03/06 01:56:34;;;;;;;19.10;10.82;;;3.00;1.00;;;;;;7365454;19;20395;-72
2023/03/06 01:59:04;;;;;;;24.05;11.52;;;3.00;1.00;;;;;;7362792;19;20471;-72
2023/03/06 02:01:35;;;;;;;18.67;11.00;;;3.10;1.00;;;;;;7365275;19;20014;-72
2023/03/06 02:04:08;;;;;;;20.55;11.05;;;3.10;1.00;;;;;;7365181;19;20014;-72
2023/03/06 02:06:41;;;;;;;22.67;10.80;;;3.10;1.00;;;;;;7386606;19;20025;-72
2023/03/06 02:09:13;;;;;;;22.42;11.70;;;3.00;1.00;;;;;;7363028;19;20034;-72
2023/03/06 02:11:44;;;;;;;18.50;10.52;;;3.00;1.00;;;;;;7364931;19;20647;-72
2023/03/06 02:14:17;;;;;;;21.33;11.40;;;3.00;1.00;;;;;;7365557;19;20017;-72
2023/03/06 02:16:47;;;;;;;18.33;10.57;;;3.00;1.00;;;;;;7367592;19;20017;-72
2023/03/06 02:19:30;;;;;;;21.92;10.75;;;3.00;1.00;;;;;;7389321;19;20016;-72
2023/03/06 02:22:00;;;;;;;20.70;10.65;;;3.00;1.00;;;;;;7393155;19;20043;-72
2023/03/06 02:24:38;;;;;;;16.95;10.38;;;3.00;1.00;;;;;;7392834;19;20022;-72
2023/03/06 02:27:13;;;;;;;17.92;9.43;;;3.00;1.00;;;;;;7392627;19;20018;-72
2023/03/06 02:29:43;;;;;;;22.70;10.63;;;2.90;1.00;;;;;;7392532;19;20039;-71
2023/03/06 02:32:13;;;;;;;18.45;10.40;;;2.90;1.00;;;;;;7392497;19;20018;-71
2023/03/06 02:34:52;;;;;;;16.65;9.70;;;2.90;1.00;;;;;;7392309;19;20102;-72
2023/03/06 02:37:22;;;;;;;18.70;9.95;;;2.80;1.00;;;;;;7392218;19;20025;-72
2023/03/06 02:39:58;;;;;;;17.25;10.48;;;2.90;1.00;;;;;;7389292;19;20029;-72
2023/03/06 02:42:31;;;;;;;18.80;10.45;;;2.80;1.00;;;;;;7391891;19;20035;-72
2023/03/06 02:45:03;;;;;;;20.50;10.60;;;2.80;1.00;;;;;;7390197;19;20022;-71
2023/03/06 02:47:33;;;;;;;20.90;10.77;;;2.80;1.00;;;;;;7358729;19;20014;-72
2023/03/06 02:50:03;;;;;;;17.90;10.30;;;2.80;1.00;;;;;;7382371;19;20014;-72
2023/03/06 02:52:33;;;;;;;20.25;10.77;;;2.90;1.00;;;;;;7386932;19;20748;-72
2023/03/06 02:55:03;;;;;;;19.92;10.57;;;2.90;1.00;;;;;;7363176;19;20014;-72
2023/03/06 02:57:35;;;;;;;21.40;11.13;;;2.90;1.00;;;;;;7363373;19;20015;-72
2023/03/06 03:00:06;;;;;;;19.67;9.63;;;2.90;1.00;;;;;;7360470;19;20018;-72
2023/03/06 03:02:35;;;;;;;19.40;9.90;;;2.90;1.00;;;;;;7363105;19;20015;-72
2023/03/06 03:05:06;;;;;;;17.23;9.85;;;2.90;1.00;;;;;;7363318;19;20078;-71
2023/03/06 03:07:36;;;;;;;19.50;10.07;;;2.90;1.00;;;;;;7384323;19;20018;-71
2023/03/06 03:10:07;;;;;;;16.80;10.35;;;2.90;1.00;;;;;;7361593;19;20017;-71
2023/03/06 03:12:40;;;;;;;15.50;8.95;;;2.90;1.00;;;;;;7364928;19;20015;-71
2023/03/06 03:15:11;;;;;;;16.55;8.57;;;2.90;1.00;;;;;;7361911;19;20021;-71
2023/03/06 03:17:41;;;;;;;16.48;9.18;;;2.90;1.00;;;;;;7310531;19;20498;-71
2023/03/06 03:20:15;;;;;;;15.25;8.55;;;2.90;1.00;;;;;;7381492;19;20015;-71
2023/03/06 03:22:48;;;;;;;14.80;8.45;;;2.80;1.00;;;;;;7384374;19;20081;-70
2023/03/06 03:25:19;;;;;;;17.48;8.45;;;2.80;1.00;;;;;;7362510;19;20085;-71
2023/03/06 03:27:51;;;;;;;15.13;8.13;;;2.90;1.00;;;;;;7362351;19;20018;-71
2023/03/06 03:30:21;;;;;;;15.45;8.10;;;2.90;1.00;;;;;;7361716;19;20011;-71
2023/03/06 03:32:51;;;;;;;16.77;9.18;;;2.90;1.00;;;;;;7362843;19;20007;-71
2023/03/06 03:35:21;;;;;;;12.88;7.75;;;2.90;1.00;;;;;;7362711;19;20017;-71
2023/03/06 03:37:51;;;;;;;14.88;8.00;;;2.90;1.00;;;;;;7383912;19;20020;-72
2023/03/06 03:40:21;;;;;;;15.07;8.05;;;2.80;1.00;;;;;;7358701;19;20492;-71
2023/03/06 03:42:54;;;;;;;13.63;7.72;;;2.90;1.00;;;;;;7366123;19;20125;-72
2023/03/06 03:45:24;;;;;;;16.45;7.45;;;2.90;1.00;;;;;;7365134;19;20470;-72
2023/03/06 03:47:53;;;;;;;13.52;7.57;;;2.90;1.00;;;;;;7363270;19;20021;-72
2023/03/06 03:50:24;;;;;;;14.80;7.85;;;2.90;1.00;;;;;;7386422;19;20014;-71
2023/03/06 03:52:54;;;;;;;14.57;7.85;;;2.80;1.00;;;;;;7389971;19;20011;-72
2023/03/06 03:55:24;;;;;;;13.57;7.82;;;2.80;1.00;;;;;;7387991;19;20018;-72
2023/03/06 03:57:56;;;;;;;14.48;7.85;;;2.80;1.00;;;;;;7388276;19;20090;-72
2023/03/06 04:00:26;;;;;;;15.48;7.80;;;2.80;1.00;;;;;;7386490;19;20039;-72
2023/03/06 04:02:56;;;;;;;13.43;6.90;;;2.80;1.00;;;;;;7389705;19;20014;-72
2023/03/06 04:05:26;;;;;;;16.23;7.80;;;2.80;1.00;;;;;;7389684;19;20015;-72
2023/03/06 04:07:55;;;;;;;13.32;7.28;;;2.80;1.00;;;;;;7389015;19;20020;-72
2023/03/06 04:10:25;;;;;;;19.98;8.13;;;2.80;1.00;;;;;;7386502;19;20022;-72
2023/03/06 04:12:58;;;;;;;14.27;7.07;;;2.70;1.00;;;;;;7391596;19;20018;-71
2023/03/06 04:15:28;;;;;;;13.57;7.40;;;2.70;1.00;;;;;;7389997;19;20021;-72
2023/03/06 04:17:57;;;;;;;13.88;8.15;;;2.70;1.00;;;;;;7389678;19;20018;-72
2023/03/06 04:20:27;;;;;;;14.30;7.13;;;2.60;1.00;;;;;;7385980;19;20030;-72
2023/03/06 04:22:57;;;;;;;14.57;7.50;;;2.60;1.00;;;;;;7388163;19;20029;-72
2023/03/06 04:25:27;;;;;;;16.75;8.27;;;2.60;1.00;;;;;;7413388;19;20018;-71
2023/03/06 04:27:59;;;;;;;16.27;8.60;;;2.60;1.00;;;;;;7379726;19;20017;-72
2023/03/06 04:30:29;;;;;;;17.30;8.45;;;2.60;1.00;;;;;;7401579;19;20010;-70
2023/03/06 04:32:59;;;;;;;15.93;8.25;;;2.60;1.00;;;;;;7371991;19;20018;-69
2023/03/06 04:35:29;;;;;;;14.40;8.13;;;2.60;1.00;;;;;;7387391;19;20022;-71
2023/03/06 04:37:59;;;;;;;17.02;7.72;;;2.60;1.00;;;;;;7360650;19;20011;-70
2023/03/06 04:40:31;;;;;;;15.43;8.15;;;2.60;1.00;;;;;;7358101;19;20018;-72
2023/03/06 04:43:05;;;;;;;14.95;7.60;;;2.60;1.00;;;;;;7361354;19;20017;-71
2023/03/06 04:45:36;;;;;;;17.45;7.93;;;2.60;1.00;;;;;;7361859;19;20014;-71
2023/03/06 04:48:06;;;;;;;15.60;7.65;;;2.60;1.00;;;;;;7359742;19;20014;-71
2023/03/06 04:50:37;;;;;;;14.40;7.85;;;2.60;1.00;;;;;;7379011;19;20574;-70
2023/03/06 04:53:07;;;;;;;14.07;8.45;;;2.60;1.00;;;;;;7359589;19;20010;-71
2023/03/06 04:55:37;;;;;;;13.55;8.02;;;2.70;1.00;;;;;;7359783;19;20034;-71
2023/03/06 04:58:09;;;;;;;15.90;8.10;;;2.70;1.00;;;;;;7359774;19;20042;-72
2023/03/06 05:00:39;;;;;;;15.77;7.60;;;2.70;1.00;;;;;;7357833;19;20015;-72
2023/03/06 05:03:16;;;;;;;14.48;7.80;;;2.70;1.00;;;;;;7359875;19;20096;-70
2023/03/06 05:05:46;;;;;;;14.63;8.18;;;2.70;1.00;;;;;;7381273;19;20030;-70
2023/03/06 05:08:17;;;;;;;15.48;8.05;;;2.70;1.00;;;;;;7361513;19;20015;-70
2023/03/06 05:10:47;;;;;;;16.65;7.90;;;2.70;1.00;;;;;;7365591;19;20015;-71
2023/03/06 05:13:19;;;;;;;15.27;7.97;;;2.70;1.00;;;;;;7367416;19;20014;-71
2023/03/06 05:15:49;;;;;;;13.82;8.27;;;2.70;1.00;;;;;;7366988;19;20031;-71
2023/03/06 05:18:20;;;;;;;15.20;8.07;;;2.70;1.00;;;;;;7366068;19;20014;-71
2023/03/06 05:20:50;;;;;;;18.27;8.20;;;2.70;1.00;;;;;;7384026;19;20019;-71
2023/03/06 05:23:20;;;;;;;14.55;8.27;;;2.60;1.00;;;;;;7366323;19;20014;-71
2023/03/06 05:25:49;;;;;;;14.90;7.13;;;2.60;1.00;;;;;;7366526;19;20010;-71
2023/03/06 05:28:22;;;;;;;15.60;8.68;;;2.60;1.00;;;;;;7367658;19;20029;-71
2023/03/06 05:30:52;;;;;;;16.83;7.95;;;2.60;1.00;;;;;;7394359;19;20049;-71
2023/03/06 05:33:22;;;;;;;15.20;8.30;;;2.60;1.00;;;;;;7394194;19;20057;-71
2023/03/06 05:35:51;;;;;;;16.60;8.35;;;2.60;1.00;;;;;;7393138;19;20026;-72
2023/03/06 05:38:22;;;;;;;17.67;8.30;;;2.60;1.00;;;;;;7393029;19;20017;-71
2023/03/06 05:40:51;;;;;;;15.60;8.43;;;2.60;1.00;;;;;;7389756;19;20021;-72
2023/03/06 05:43:24;;;;;;;18.25;8.93;;;2.60;1.00;;;;;;7394033;19;20040;-70
2023/03/06 05:46:02;;;;;;;17.67;8.65;;;2.60;1.00;;;;;;7394355;19;20026;-70
2023/03/06 05:48:32;;;;;;;21.75;9.15;;;2.60;1.00;;;;;;7391379;19;20006;-71
2023/03/06 05:51:03;;;;;;;16.25;8.05;;;2.70;1.00;;;;;;7392085;19;20040;-71
2023/03/06 05:53:33;;;;;;;17.27;8.93;;;2.70;1.00;;;;;;7393362;19;20538;-70
2023/03/06 05:56:07;;;;;;;14.85;8.68;;;2.60;1.00;;;;;;7393237;19;20014;-70
2023/03/06 05:58:40;;;;;;;19.75;9.13;;;2.60;1.00;;;;;;7391923;19;20014;-70
2023/03/06 06:01:11;;;;;;;15.18;7.97;;;2.60;1.00;;;;;;7393019;19;20018;-71
2023/03/06 06:03:41;;;;;;;18.67;9.13;;;2.70;1.00;;;;;;7393475;19;20025;-71
2023/03/06 06:06:13;;;;;;;14.80;9.00;;;2.70;1.00;;;;;;7392856;19;20014;-71
2023/03/06 06:08:43;;;;;;;16.88;9.07;;;2.60;1.00;;;;;;7389871;19;20039;-71
2023/03/06 06:11:14;;;;;;;14.88;8.48;;;2.70;1.00;;;;;;7392185;19;20039;-71
2023/03/06 06:13:47;;;;;;;15.27;7.70;;;2.70;1.00;;;;;;7393634;19;20034;-71
2023/03/06 06:16:18;;;;;;;17.83;8.80;;;2.70;1.00;;;;;;7393106;19;20074;-71
2023/03/06 06:18:48;;;;;;;17.30;8.77;;;2.70;1.00;;;;;;7390569;19;20015;-71
2023/03/06 06:21:18;;;;;;;15.18;8.52;;;2.70;1.00;;;;;;7390256;19;20015;-71
2023/03/06 06:23:48;;;;;;;15.70;8.43;;;2.70;1.00;;;;;;7392379;19;20015;-71
2023/03/06 06:26:17;;;;;;;14.30;7.85;;;2.70;1.00;;;;;;7392489;19;20021;-71
2023/03/06 06:28:50;;;;;;;20.38;8.50;;;2.80;1.00;;;;;;7390691;19;20655;-71
2023/03/06 06:31:20;;;;;;;15.57;8.50;;;2.80;1.00;;;;;;7391024;19;20031;-71
2023/03/06 06:33:50;;;;;;;14.85;8.77;;;2.80;1.00;;;;;;7391770;19;20538;-72
2023/03/06 06:36:20;;;;;;;13.77;8.10;;;2.70;1.00;;;;;;7391536;19;20363;-72
2023/03/06 06:38:50;;;;;;;16.00;7.90;;;2.80;1.00;;;;;;7389690;19;20033;-72
2023/03/06 06:41:20;;;;;;;15.32;8.48;;;2.90;1.00;;;;;;7390027;19;20048;-71
2023/03/06 06:44:14;;;;;;;16.38;8.20;;;2.80;1.00;;;;;;7391188;19;20022;-71
2023/03/06 06:46:46;;;;;;;16.75;8.90;;;2.90;1.00;;;;;;7391611;19;20025;-72
2023/03/06 06:49:36;;;;;;;16.77;7.78;;;3.00;1.00;;;;;;7387706;19;20042;-72
2023/03/06 06:52:06;;;;;;;15.85;8.52;;;3.00;1.00;;;;;;7390966;19;20021;-71
2023/03/06 06:54:36;;;;;;;18.80;9.57;;;3.00;1.00;;;;;;7352738;19;20007;-71
2023/03/06 06:57:06;;;;;;;17.45;8.25;;;3.10;1.00;;;;;;7388830;19;20014;-70
2023/03/06 06:59:39;;;;;;;15.98;8.18;;;3.10;1.00;;;;;;7383582;19;20026;-71
2023/03/06 07:02:09;;;;;;;19.63;8.38;;;3.10;1.00;;;;;;7361995;19;20502;-71
2023/03/06 07:04:40;;;;;;;17.33;8.60;;;3.20;1.00;;;;;;7362802;19;20011;-71
2023/03/06 07:07:29;;;;;;;17.65;8.85;;;3.20;1.00;;;;;;7362531;19;20011;-71
2023/03/06 07:09:59;;;;;;;15.40;8.10;;;3.20;1.00;;;;;;7360520;19;20014;-71
2023/03/06 07:12:31;;;;;;;15.85;7.95;;;3.20;1.00;;;;;;7362439;19;20013;-71
2023/03/06 07:15:04;;;;;;;17.38;8.55;;;3.10;1.00;;;;;;7384177;19;20024;-70
2023/03/06 07:17:33;;;;;;;16.95;9.13;;;3.20;1.00;;;;;;7361912;19;20035;-70
2023/03/06 07:20:05;;;;;;;17.48;9.10;;;3.20;1.00;;;;;;7358149;19;20462;-70
2023/03/06 07:22:35;;;;;;;16.90;8.52;;;3.30;1.00;;;;;;7361798;19;20018;-71
2023/03/06 07:25:20;;;;;;;19.17;8.45;;;3.30;1.00;;;;;;7361218;19;20018;-72
2023/03/06 07:27:52;;;;;;;16.95;7.72;;;3.40;1.00;;;;;;7360859;19;20017;-70
2023/03/06 07:30:26;;;;;;;18.85;8.30;;;3.50;1.00;;;;;;7361305;19;20029;-71
2023/03/06 07:32:57;;;;;;;15.40;8.15;;;3.60;1.00;;;;;;7383696;19;20038;-70
2023/03/06 07:35:27;;;;;;;13.90;7.22;;;3.60;1.00;;;;;;7361122;19;20493;-70
2023/03/06 07:37:57;;;;;;;15.48;7.88;;;3.60;1.00;;;;;;7361932;19;20015;-72
2023/03/06 07:40:28;;;;;;;15.88;7.47;;;3.60;1.00;;;;;;7359826;19;20094;-71
2023/03/06 07:42:59;;;;;;;18.60;8.45;;;3.70;1.00;;;;;;7362018;19;20025;-71
2023/03/06 07:45:57;;;;;;;14.93;8.02;;;3.70;1.00;;;;;;7361411;19;20058;-71
2023/03/06 07:48:27;;;;;;;22.02;7.63;;;3.70;1.00;;;;;;7360293;19;20031;-71
2023/03/06 07:50:58;;;;;;;16.58;8.70;;;3.90;1.00;;;;;;7380883;19;20356;-71
2023/03/06 07:53:28;;;;;;;14.63;7.93;;;3.90;1.00;;;;;;7361727;19;20011;-72
2023/03/06 07:55:58;;;;;;;13.85;7.63;;;3.80;1.00;;;;;;7367441;19;20010;-71
2023/03/06 07:58:28;;;;;;;17.30;8.48;;;3.80;1.00;;;;;;7391807;19;20491;-71
2023/03/06 08:01:05;;;;;;;21.13;7.80;;;3.90;1.00;;;;;;7389058;19;20087;-70
2023/03/06 08:03:36;;;;;;;16.88;8.45;;;4.00;1.00;;;;;;7387639;19;20018;-72
2023/03/06 08:06:07;;;;;;;15.75;8.65;;;4.10;1.00;;;;;;7389114;19;20024;-70
2023/03/06 08:08:38;;;;;;;18.58;7.72;;;4.30;1.00;;;;;;7405952;19;20010;-70
2023/03/06 08:11:08;;;;;;;22.48;7.60;;;4.30;1.00;;;;;;7418929;19;20043;-71
2023/03/06 08:13:39;;;;;;;12.52;7.32;;;4.20;1.00;;;;;;7409490;19;20116;-69
2023/03/06 08:16:12;;;;;;;15.65;8.45;;;4.30;1.00;;;;;;7394446;19;20010;-71
2023/03/06 08:18:42;;;;;;;16.58;8.55;;;4.30;1.00;;;;;;7387870;19;20011;-69
2023/03/06 08:21:16;;;;;;;18.52;8.13;;;4.40;1.00;;;;;;7387905;19;20022;-70
2023/03/06 08:23:47;;;;;;;16.02;8.23;;;4.50;1.00;;;;;;7387174;19;20014;-70
2023/03/06 08:26:19;;;;;;;18.92;7.88;;;4.50;1.00;;;;;;7388339;19;20023;-70
2023/03/06 08:28:49;;;;;;;15.75;7.57;;;4.20;1.00;;;;;;7352679;19;20004;-70
2023/03/06 08:31:28;;;;;;;17.48;8.43;;;4.40;1.00;;;;;;7380626;19;20014;-72
2023/03/06 08:34:00;;;;;;;16.17;8.15;;;4.50;1.00;;;;;;7360302;19;20041;-70
2023/03/06 08:36:30;;;;;;;13.93;7.97;;;4.60;1.00;;;;;;7359983;19;20011;-71
2023/03/06 08:39:00;;;;;;;15.60;8.55;;;4.40;1.00;;;;;;7359124;19;20018;-71
2023/03/06 08:41:30;;;;;;;16.27;7.60;;;4.30;1.00;;;;;;7363986;19;20022;-71
2023/03/06 08:44:00;;;;;;;14.93;8.32;;;4.40;1.00;;;;;;7365822;19;20017;-71
2023/03/06 08:46:33;;;;;;;15.07;8.93;;;4.40;1.00;;;;;;7368662;19;20064;-71
2023/03/06 08:49:04;;;;;;;14.65;7.88;;;4.60;1.00;;;;;;7388340;19;20082;-71
2023/03/06 08:51:34;;;;;;;15.85;8.60;;;4.80;1.00;;;;;;7370005;19;20098;-71
2023/03/06 08:54:03;;;;;;;14.45;8.25;;;4.80;1.00;;;;;;7370825;19;20108;-71
2023/03/06 08:56:35;;;;;;;14.07;7.63;;;4.50;1.00;;;;;;7369628;19;20479;-71
2023/03/06 08:59:08;;;;;;;15.93;8.77;;;4.60;1.00;;;;;;7368269;19;20055;-72
2023/03/06 09:01:41;;;;;;;16.63;8.73;;;4.70;1.00;;;;;;7368485;19;20042;-71
2023/03/06 09:04:12;;;;;;;17.80;9.02;;;4.90;1.00;;;;;;7388831;19;20006;-71
2023/03/06 09:06:44;;;;;;;15.43;9.02;;;4.40;1.00;;;;;;7367823;19;20014;-71
2023/03/06 09:09:15;;;;;;;15.98;9.20;;;4.50;1.00;;;;;;7366391;19;20086;-71
2023/03/06 09:11:44;;;;;;;17.27;9.07;;;4.40;1.00;;;;;;7368019;19;20430;-70
2023/03/06 09:14:15;;;;;;;16.25;8.63;;;4.10;1.00;;;;;;7367597;19;20014;-71
2023/03/06 09:16:47;;;;;;;18.42;9.55;;;4.20;1.00;;;;;;7367767;19;20025;-71
2023/03/06 09:19:17;;;;;;;17.50;9.70;;;4.30;1.00;;;;;;7387581;19;20074;-72
2023/03/06 09:21:48;;;;;;;16.38;9.20;;;4.30;1.00;;;;;;7366349;19;20480;-70
2023/03/06 09:24:17;;;;;;;18.55;9.70;;;4.40;1.00;;;;;;7364186;19;20031;-70
2023/03/06 09:26:47;;;;;;;17.58;9.15;;;4.10;1.00;;;;;;7366934;19;20077;-70
2023/03/06 09:29:20;;;;;;;21.23;9.52;;;4.30;1.00;;;;;;7360683;19;20468;-72
2023/03/06 09:31:53;;;;;;;17.38;8.90;;;4.40;1.00;;;;;;7397305;19;20414;-71
2023/03/06 09:34:23;;;;;;;18.35;9.07;;;4.40;1.00;;;;;;7392681;19;20011;-71
2023/03/06 09:36:52;;;;;;;17.88;9.30;;;4.10;1.00;;;;;;7393940;19;20017;-71
2023/03/06 09:39:26;;;;;;;19.95;10.43;;;4.20;1.00;;;;;;7390848;19;20014;-71
2023/03/06 09:41:58;;;;;;;18.90;9.25;;;4.10;1.00;;;;;;7343771;19;20014;-71
2023/03/06 09:44:33;;;;;;;18.30;9.50;;;4.10;1.00;;;;;;7385802;19;20078;-72
2023/03/06 09:47:26;;;;;;;17.15;9.02;;;4.20;1.00;;;;;;7364122;19;20103;-72
2023/03/06 09:50:10;;;;;;;16.40;8.23;;;4.30;1.00;;;;;;7364137;19;20030;-72
2023/03/06 09:52:47;;;;;;;14.23;8.45;;;4.40;1.00;;;;;;7364027;19;20074;-72
2023/03/06 09:55:20;;;;;;;16.13;9.18;;;4.60;1.00;;;;;;7384449;19;20018;-72
2023/03/06 09:57:57;;;;;;;18.98;9.95;;;4.30;1.00;;;;;;7366476;19;20015;-71
2023/03/06 10:00:32;;;;;;;17.45;9.52;;;4.40;1.00;;;;;;7363374;19;20035;-72
2023/03/06 10:03:16;;;;;;;18.00;9.15;;;4.20;1.00;;;;;;7366570;19;20029;-71
2023/03/06 10:05:51;;;;;;;16.73;8.25;;;4.40;1.00;;;;;;7362862;19;20006;-71
2023/03/06 10:08:29;;;;;;;16.40;8.60;;;4.30;1.00;;;;;;7363373;19;20014;-72
2023/03/06 10:11:04;;;;;;;19.48;9.43;;;4.40;1.00;;;;;;7363810;19;20122;-71
2023/03/06 10:13:40;;;;;;;15.88;8.95;;;4.60;1.00;;;;;;7384601;19;20034;-71
2023/03/06 10:16:22;;;;;;;16.23;8.68;;;4.50;1.00;;;;;;7362735;19;20011;-71
2023/03/06 10:18:55;;;;;;;17.60;9.10;;;4.40;1.00;;;;;;7363929;19;20469;-71
2023/03/06 10:21:43;;;;;;;15.90;9.23;;;4.60;1.00;;;;;;7365841;19;20014;-71
2023/03/06 10:24:35;;;;;;;17.67;8.93;;;4.70;1.00;;;;;;7361330;19;20628;-71
2023/03/06 10:27:15;;;;;;;18.80;9.35;;;4.90;1.00;;;;;;7360224;19;20078;-71
2023/03/06 10:29:54;;;;;;;16.52;8.88;;;4.90;1.00;;;;;;7362419;19;20011;-71
2023/03/06 10:32:38;;;;;;;15.63;8.80;;;4.60;1.00;;;;;;7365671;19;20014;-71
2023/03/06 10:35:22;;;;;;;13.52;8.25;;;4.40;1.00;;;;;;7365742;19;20014;-71
2023/03/06 10:37:51;;;;;;;;;;;4.30;1.00;;;;;;7366367;19;20358;-72
2023/03/06 10:40:24;;;;;;;13.18;8.00;;;4.50;1.00;;;;;;7385863;19;19943;-70
2023/03/06 10:42:54;;;;;;;14.18;8.57;;;4.70;1.00;;;;;;7368359;19;20078;-69
2023/03/06 10:45:49;;;;;;;14.57;8.48;;;4.70;1.00;;;;;;7388453;19;20030;-71
2023/03/06 10:48:24;;;;;;;13.07;8.25;;;4.90;1.00;;;;;;7390287;19;20078;-71
2023/03/06 10:51:18;;;;;;;17.27;7.95;;;5.20;1.00;;;;;;7391273;19;20086;-71
2023/03/06 10:53:54;;;;;;;16.48;7.97;;;5.10;1.00;;;;;;7396978;19;20011;-71
2023/03/06 10:56:33;;;;;;;16.05;8.30;;;5.40;1.00;;;;;;7392764;19;20003;-72
2023/03/06 10:59:08;;;;;;;13.75;8.50;;;5.50;1.00;;;;;;7323333;19;20082;-72
2023/03/06 11:01:38;;;;;;;17.40;9.07;;;5.80;1.00;;;;;;7368293;19;20370;-72
2023/03/06 11:04:23;;;;;;;15.50;8.75;;;5.40;1.00;;;;;;7366153;19;20033;-71
2023/03/06 11:07:15;;;;;;;16.20;8.45;;;5.30;1.00;;;;;;7363546;19;20015;-73
2023/03/06 11:09:46;;;;;;;11.60;7.40;;;5.50;1.00;;;;;;7364142;19;20143;-73
2023/03/06 11:12:27;;;;;;;13.15;8.13;;;5.60;1.00;;;;;;7363848;19;20351;-73
2023/03/06 11:15:22;;;;;;;14.70;8.80;;;5.30;1.00;;;;;;7362845;19;20447;-73
2023/03/06 11:18:01;;;;;;;12.75;7.57;;;5.50;1.00;;;;;;7381547;19;20096;-75
2023/03/06 11:20:36;;;;;;;14.57;8.23;;;5.50;1.00;;;;;;7379998;19;20020;-72
2023/03/06 11:23:36;;;;;;;14.55;8.48;;;5.60;1.00;;;;;;7362263;19;20106;-73
2023/03/06 11:26:27;;;;;;;13.82;7.95;;;5.80;1.00;;;;;;7363475;19;20026;-74
2023/03/06 11:29:30;;;;;;;14.55;8.30;;;5.30;1.00;;;;;;7363174;19;20014;-73
2023/03/06 11:32:10;;;;;;;17.52;8.52;;;5.30;1.00;;;;;;7360752;19;20018;-73
2023/03/06 11:34:46;;;;;;;14.38;8.05;;;5.30;1.00;;;;;;7362143;19;20040;-73
2023/03/06 11:37:27;;;;;;;14.85;9.02;;;5.20;1.00;;;;;;7364682;19;20478;-72
2023/03/06 11:40:08;;;;;;;22.95;8.63;;;5.20;1.00;;;;;;7360993;19;20036;-72
2023/03/06 11:42:42;;;;;;;15.30;8.18;;;5.40;1.00;;;;;;7360892;19;20014;-72
2023/03/06 11:45:30;;;;;;;13.32;8.18;;;5.60;1.00;;;;;;7361933;19;20038;-73
2023/03/06 11:48:12;;;;;;;13.15;7.53;;;5.60;1.00;;;;;;7395441;19;20018;-70
2023/03/06 11:50:44;;;;;;;15.07;8.82;;;6.00;1.00;;;;;;7417454;19;20027;-72
2023/03/06 11:53:17;;;;;;;16.13;8.07;;;5.80;1.00;;;;;;7387219;19;20055;-72
2023/03/06 11:55:59;;;;;;;13.40;8.13;;;5.70;1.00;;;;;;7364336;19;20042;-72
2023/03/06 11:59:01;;;;;;;15.82;8.40;;;5.60;1.00;;;;;;7364887;19;20010;-72
2023/03/06 12:01:36;;;;;;;15.88;8.88;;;5.50;1.00;;;;;;7386664;19;20355;-73
2023/03/06 12:04:27;;;;;;;15.95;7.45;;;5.70;1.00;;;;;;7387311;19;20021;-73
2023/03/06 12:07:02;;;;;;;12.98;7.10;;;5.40;1.00;;;;;;7385410;19;20729;-73
2023/03/06 12:09:46;;;;;;;16.05;8.52;;;5.20;1.00;;;;;;7382009;19;20074;-72
2023/03/06 12:12:52;;;;;;;19.65;9.93;;;5.70;1.00;;;;;;7387157;19;20021;-73
2023/03/06 12:15:31;;;;;;;15.52;9.73;;;6.10;1.00;;;;;;7387882;19;20018;-73
2023/03/06 12:18:29;;;;;;;14.07;8.63;;;5.50;1.00;;;;;;7387901;19;20022;-74
2023/03/06 12:21:05;;;;;;;16.85;9.75;;;6.00;1.00;;;;;;7387765;19;20011;-73
2023/03/06 12:23:52;;;;;;;13.43;7.68;;;6.10;1.00;;;;;;7386651;19;20471;-74
2023/03/06 12:26:40;;;;;;;13.20;7.65;;;5.60;1.00;;;;;;7385060;19;20014;-74
2023/03/06 12:29:22;;;;;;;14.48;8.95;;;5.70;1.00;;;;;;7388717;19;20490;-74
2023/03/06 12:32:09;;;;;;;15.23;8.95;;;6.10;1.00;;;;;;7390475;19;20014;-74
2023/03/06 12:35:04;;;;;;;16.33;8.15;;;5.90;1.00;;;;;;7387616;19;20094;-72
2023/03/06 12:37:49;;;;;;;13.15;8.02;;;5.90;1.00;;;;;;7386325;19;20775;-74
2023/03/06 12:40:45;;;;;;;14.18;7.85;;;5.90;1.00;;;;;;7384563;19;20085;-72
2023/03/06 12:43:53;;;;;;;16.17;8.57;;;5.40;1.00;;;;;;7387495;19;20474;-72
2023/03/06 12:46:27;;;;;;;23.27;11.70;;;5.60;1.00;;;;;;7385870;19;20017;-73
2023/03/06 12:49:04;;;;;;;21.85;11.80;;;6.00;1.00;;;;;;7387114;19;20031;-74
2023/03/06 12:51:36;;;;;;;17.30;9.20;;;6.30;1.00;;;;;;7386653;19;20039;-74
2023/03/06 12:54:07;;;;;;;15.85;8.38;;;6.40;1.00;;;;;;7384075;19;20035;-74
2023/03/06 12:56:37;;;;;;;17.10;10.45;;;6.30;1.00;;;;;;7383247;19;20110;-73
2023/03/06 12:59:06;;;;;;;12.98;8.23;;;6.20;1.00;;;;;;7384497;19;20018;-73
2023/03/06 13:02:02;;;;;;;21.52;10.95;;;5.80;1.00;;;;;;7387293;19;20030;-72
2023/03/06 13:04:49;;;;;;;14.38;8.02;;;6.10;1.00;;;;;;7386428;19;20010;-73
2023/03/06 13:07:37;;;;;;;13.93;7.47;;;6.10;1.00;;;;;;7382654;19;20025;-73
2023/03/06 13:10:12;;;;;;;14.68;8.77;;;6.00;1.00;;;;;;7379167;19;20014;-73
2023/03/06 13:12:55;;;;;;;16.73;7.90;;;6.20;1.00;;;;;;7385204;19;20522;-73
2023/03/06 13:15:41;;;;;;;14.52;8.23;;;5.80;1.00;;;;;;7383473;19;20022;-73
2023/03/06 13:18:41;;;;;;;12.52;7.88;;;6.20;1.00;;;;;;7381049;19;20021;-73
2023/03/06 13:22:08;;;;;;;13.93;7.22;;;6.20;1.00;;;;;;7383810;19;20039;-73
2023/03/06 13:24:39;;;;;;;13.38;6.97;;;5.90;1.00;;;;;;7382862;19;20018;-73
2023/03/06 13:27:11;;;;;;;14.15;8.40;;;5.90;1.00;;;;;;7346779;19;20024;-73
2023/03/06 13:30:07;;;;;;;11.32;7.45;;;6.10;1.00;;;;;;7382689;19;20027;-73
2023/03/06 13:32:37;;;;;;;13.02;8.07;;;5.90;1.00;;;;;;7386939;19;20677;-74